Fresno, California
Current Conditions -  °F | °C
As of 7:53 PM on Thursday 20 Nov 2014 (Local Time) from KFAT Reporting Station
Broken Clouds Broken Clouds  
Wind Chill: 55°   Ceiling: 10000
Heat Index: 55°   Visibility: 10mi
Dew Point: 48°   Wind: 5mph
Humidity: 77%   Direction: 230°SW
Pressure: 30.01"   Gusts: NA
Location:  36.74°N, 119.78°W
Report Text: KFAT 210353Z 23004KT 10SM BKN100 13/09 A3001 RMK AO2 SLP163 T01280089
Loading
Personal Weather Stations






























Interactive Weather Map New forecast layout! Learn more

10-Day Weather Forecast

Advertisements
Track Severe Weather on mobile